sensor_id;sensor_type;location;lat;lon;timestamp;temperature;humidity
52058;DHT22;38063;53.210;6.504;2022-12-05T00:00:14;4.40;99.90
52058;DHT22;38063;53.210;6.504;2022-12-05T00:02:40;4.40;99.90
52058;DHT22;38063;53.210;6.504;2022-12-05T00:05:06;4.40;99.90
52058;DHT22;38063;53.210;6.504;2022-12-05T00:07:31;4.40;99.90
52058;DHT22;38063;53.210;6.504;2022-12-05T00:09:57;4.40;99.90
52058;DHT22;38063;53.210;6.504;2022-12-05T00:12:23;4.10;99.90
52058;DHT22;38063;53.210;6.504;2022-12-05T00:14:48;4.40;99.90
52058;DHT22;38063;53.210;6.504;2022-12-05T00:17:14;4.40;99.90
52058;DHT22;38063;53.210;6.504;2022-12-05T00:19:40;4.40;99.90
52058;DHT22;38063;53.210;6.504;2022-12-05T00:22:05;4.40;99.90
52058;DHT22;38063;53.210;6.504;2022-12-05T00:24:31;4.40;99.90
52058;DHT22;38063;53.210;6.504;2022-12-05T00:26:57;4.40;99.90
52058;DHT22;38063;53.210;6.504;2022-12-05T00:29:22;5.70;99.90
52058;DHT22;38063;53.210;6.504;2022-12-05T00:31:48;5.30;99.90
52058;DHT22;38063;53.210;6.504;2022-12-05T00:34:13;4.50;99.90
52058;DHT22;38063;53.210;6.504;2022-12-05T00:36:39;4.60;99.90
52058;DHT22;38063;53.210;6.504;2022-12-05T00:39:11;4.50;99.90
52058;DHT22;38063;53.210;6.504;2022-12-05T00:41:40;4.50;99.90
52058;DHT22;38063;53.210;6.504;2022-12-05T00:44:06;4.60;99.90
52058;DHT22;38063;53.210;6.504;2022-12-05T00:46:33;4.60;99.90
52058;DHT22;38063;53.210;6.504;2022-12-05T00:48:59;4.60;99.90
52058;DHT22;38063;53.210;6.504;2022-12-05T00:51:31;4.60;99.90
52058;DHT22;38063;53.210;6.504;2022-12-05T00:54:00;4.60;99.90
52058;DHT22;38063;53.210;6.504;2022-12-05T00:56:27;4.60;99.90
52058;DHT22;38063;53.210;6.504;2022-12-05T00:58:54;4.60;99.90
52058;DHT22;38063;53.210;6.504;2022-12-05T01:01:39;4.60;99.90
52058;DHT22;38063;53.210;6.504;2022-12-05T01:04:09;4.60;99.90
52058;DHT22;38063;53.210;6.504;2022-12-05T01:06:36;4.60;99.90
52058;DHT22;38063;53.210;6.504;2022-12-05T01:09:03;4.60;99.90
52058;DHT22;38063;53.210;6.504;2022-12-05T01:11:29;4.60;99.90
52058;DHT22;38063;53.210;6.504;2022-12-05T01:13:55;4.70;99.90
52058;DHT22;38063;53.210;6.504;2022-12-05T01:16:30;4.70;99.90
52058;DHT22;38063;53.210;6.504;2022-12-05T01:18:58;4.70;99.90
52058;DHT22;38063;53.210;6.504;2022-12-05T01:21:24;4.70;99.90
52058;DHT22;38063;53.210;6.504;2022-12-05T01:23:51;4.70;99.90
52058;DHT22;38063;53.210;6.504;2022-12-05T01:26:19;4.80;99.90
52058;DHT22;38063;53.210;6.504;2022-12-05T01:28:45;4.80;99.90
52058;DHT22;38063;53.210;6.504;2022-12-05T01:31:22;4.80;99.90
52058;DHT22;38063;53.210;6.504;2022-12-05T01:33:49;4.80;99.90
52058;DHT22;38063;53.210;6.504;2022-12-05T01:36:15;4.80;99.90
52058;DHT22;38063;53.210;6.504;2022-12-05T01:38:42;4.90;99.90
52058;DHT22;38063;53.210;6.504;2022-12-05T01:41:13;4.90;99.90
52058;DHT22;38063;53.210;6.504;2022-12-05T01:44:05;4.90;99.90
52058;DHT22;38063;53.210;6.504;2022-12-05T01:46:36;5.00;99.90
52058;DHT22;38063;53.210;6.504;2022-12-05T01:49:06;5.00;99.90
52058;DHT22;38063;53.210;6.504;2022-12-05T01:51:35;5.00;99.90
52058;DHT22;38063;53.210;6.504;2022-12-05T01:54:02;5.00;99.90
52058;DHT22;38063;53.210;6.504;2022-12-05T01:56:29;5.00;99.90
52058;DHT22;38063;53.210;6.504;2022-12-05T01:58:58;5.00;99.90
52058;DHT22;38063;53.210;6.504;2022-12-05T02:01:24;5.10;99.90
52058;DHT22;38063;53.210;6.504;2022-12-05T02:03:53;5.10;99.90
52058;DHT22;38063;53.210;6.504;2022-12-05T02:06:21;5.10;99.90
52058;DHT22;38063;53.210;6.504;2022-12-05T02:08:48;5.10;99.90
52058;DHT22;38063;53.210;6.504;2022-12-05T02:11:14;5.10;99.90
52058;DHT22;38063;53.210;6.504;2022-12-05T02:13:58;5.10;99.90
52058;DHT22;38063;53.210;6.504;2022-12-05T02:22:11;5.10;99.90
52058;DHT22;38063;53.210;6.504;2022-12-05T02:27:41;5.10;99.90
52058;DHT22;38063;53.210;6.504;2022-12-05T02:30:16;5.10;99.90
52058;DHT22;38063;53.210;6.504;2022-12-05T02:32:49;5.10;99.90
52058;DHT22;38063;53.210;6.504;2022-12-05T02:38:16;5.10;99.90
52058;DHT22;38063;53.210;6.504;2022-12-05T02:41:04;5.10;99.90
52058;DHT22;38063;53.210;6.504;2022-12-05T02:43:41;5.00;99.90
52058;DHT22;38063;53.210;6.504;2022-12-05T02:46:12;5.10;99.90
52058;DHT22;38063;53.210;6.504;2022-12-05T02:48:41;5.10;99.90
52058;DHT22;38063;53.210;6.504;2022-12-05T02:51:09;5.10;99.90
52058;DHT22;38063;53.210;6.504;2022-12-05T02:53:38;5.10;99.90
52058;DHT22;38063;53.210;6.504;2022-12-05T02:56:05;5.00;99.90
52058;DHT22;38063;53.210;6.504;2022-12-05T02:58:35;5.00;99.90
52058;DHT22;38063;53.210;6.504;2022-12-05T03:01:03;5.00;99.90
52058;DHT22;38063;53.210;6.504;2022-12-05T03:03:29;5.00;99.90
52058;DHT22;38063;53.210;6.504;2022-12-05T03:08:34;5.00;99.90
52058;DHT22;38063;53.210;6.504;2022-12-05T03:11:02;5.00;99.90
52058;DHT22;38063;53.210;6.504;2022-12-05T03:13:38;5.00;99.90
52058;DHT22;38063;53.210;6.504;2022-12-05T03:16:21;5.10;99.90
52058;DHT22;38063;53.210;6.504;2022-12-05T03:18:54;5.00;99.90
52058;DHT22;38063;53.210;6.504;2022-12-05T03:21:32;5.00;99.90
52058;DHT22;38063;53.210;6.504;2022-12-05T03:24:04;5.00;99.90
52058;DHT22;38063;53.210;6.504;2022-12-05T03:29:34;5.00;99.90
52058;DHT22;38063;53.210;6.504;2022-12-05T03:34:58;5.00;99.90
52058;DHT22;38063;53.210;6.504;2022-12-05T03:37:35;5.00;99.90
52058;DHT22;38063;53.210;6.504;2022-12-05T03:40:07;5.00;99.90
52058;DHT22;38063;53.210;6.504;2022-12-05T03:42:38;4.90;99.90
52058;DHT22;38063;53.210;6.504;2022-12-05T03:45:13;4.90;99.90
52058;DHT22;38063;53.210;6.504;2022-12-05T03:50:25;4.90;99.90
52058;DHT22;38063;53.210;6.504;2022-12-05T03:53:07;4.90;99.90
52058;DHT22;38063;53.210;6.504;2022-12-05T03:55:37;4.90;99.90
52058;DHT22;38063;53.210;6.504;2022-12-05T03:58:14;4.90;99.90
52058;DHT22;38063;53.210;6.504;2022-12-05T04:00:44;4.90;99.90
52058;DHT22;38063;53.210;6.504;2022-12-05T04:03:22;4.90;99.90
52058;DHT22;38063;53.210;6.504;2022-12-05T04:05:54;4.90;99.90
52058;DHT22;38063;53.210;6.504;2022-12-05T04:08:30;4.90;99.90
52058;DHT22;38063;53.210;6.504;2022-12-05T04:11:00;4.80;99.90
52058;DHT22;38063;53.210;6.504;2022-12-05T04:13:51;4.80;99.90
52058;DHT22;38063;53.210;6.504;2022-12-05T04:16:22;4.80;99.90
52058;DHT22;38063;53.210;6.504;2022-12-05T04:19:20;4.90;99.90
52058;DHT22;38063;53.210;6.504;2022-12-05T04:21:49;4.90;99.90
52058;DHT22;38063;53.210;6.504;2022-12-05T04:24:29;4.90;99.90
52058;DHT22;38063;53.210;6.504;2022-12-05T04:30:15;4.90;99.90
52058;DHT22;38063;53.210;6.504;2022-12-05T04:32:47;4.90;99.90
52058;DHT22;38063;53.210;6.504;2022-12-05T04:35:24;4.90;99.90
52058;DHT22;38063;53.210;6.504;2022-12-05T04:37:57;4.90;99.90
52058;DHT22;38063;53.210;6.504;2022-12-05T04:40:34;4.90;99.90
52058;DHT22;38063;53.210;6.504;2022-12-05T04:43:02;4.90;99.90
52058;DHT22;38063;53.210;6.504;2022-12-05T04:45:29;4.90;99.90
52058;DHT22;38063;53.210;6.504;2022-12-05T04:47:59;4.90;99.90
52058;DHT22;38063;53.210;6.504;2022-12-05T04:50:29;4.90;99.90
52058;DHT22;38063;53.210;6.504;2022-12-05T04:52:57;4.90;99.90
52058;DHT22;38063;53.210;6.504;2022-12-05T04:55:25;4.90;99.90
52058;DHT22;38063;53.210;6.504;2022-12-05T04:58:06;4.90;99.90
52058;DHT22;38063;53.210;6.504;2022-12-05T05:00:37;4.90;99.90
52058;DHT22;38063;53.210;6.504;2022-12-05T05:03:35;4.90;99.90
52058;DHT22;38063;53.210;6.504;2022-12-05T05:06:04;4.90;99.90
52058;DHT22;38063;53.210;6.504;2022-12-05T05:08:30;4.90;99.90
52058;DHT22;38063;53.210;6.504;2022-12-05T05:11:17;4.90;99.90
52058;DHT22;38063;53.210;6.504;2022-12-05T05:13:43;4.90;99.90
52058;DHT22;38063;53.210;6.504;2022-12-05T05:16:14;4.90;99.90
52058;DHT22;38063;53.210;6.504;2022-12-05T05:18:45;4.90;99.90
52058;DHT22;38063;53.210;6.504;2022-12-05T05:21:19;4.90;99.90
52058;DHT22;38063;53.210;6.504;2022-12-05T05:23:46;4.90;99.90
52058;DHT22;38063;53.210;6.504;2022-12-05T05:26:12;4.90;99.90
52058;DHT22;38063;53.210;6.504;2022-12-05T05:28:38;4.90;99.90
52058;DHT22;38063;53.210;6.504;2022-12-05T05:31:04;4.90;99.90
52058;DHT22;38063;53.210;6.504;2022-12-05T05:33:31;4.90;99.90
52058;DHT22;38063;53.210;6.504;2022-12-05T05:36:00;4.90;99.90
52058;DHT22;38063;53.210;6.504;2022-12-05T05:38:25;4.90;99.90
52058;DHT22;38063;53.210;6.504;2022-12-05T05:40:51;4.90;99.90
52058;DHT22;38063;53.210;6.504;2022-12-05T05:43:17;4.90;99.90
52058;DHT22;38063;53.210;6.504;2022-12-05T05:45:42;4.90;99.90
52058;DHT22;38063;53.210;6.504;2022-12-05T05:48:08;4.90;99.90
52058;DHT22;38063;53.210;6.504;2022-12-05T05:50:33;4.90;99.90
52058;DHT22;38063;53.210;6.504;2022-12-05T05:52:59;5.00;99.90
52058;DHT22;38063;53.210;6.504;2022-12-05T05:55:25;5.00;99.90
52058;DHT22;38063;53.210;6.504;2022-12-05T05:57:51;4.90;99.90
52058;DHT22;38063;53.210;6.504;2022-12-05T06:00:16;4.90;99.90
52058;DHT22;38063;53.210;6.504;2022-12-05T06:02:42;5.00;99.90
52058;DHT22;38063;53.210;6.504;2022-12-05T06:05:08;5.00;99.90
52058;DHT22;38063;53.210;6.504;2022-12-05T06:07:34;4.90;99.90
52058;DHT22;38063;53.210;6.504;2022-12-05T06:09:59;4.90;99.90
52058;DHT22;38063;53.210;6.504;2022-12-05T06:12:25;4.90;99.90
52058;DHT22;38063;53.210;6.504;2022-12-05T06:14:51;5.00;99.90
52058;DHT22;38063;53.210;6.504;2022-12-05T06:17:17;5.00;99.90
52058;DHT22;38063;53.210;6.504;2022-12-05T06:19:42;5.00;99.90
52058;DHT22;38063;53.210;6.504;2022-12-05T06:22:08;5.00;99.90
52058;DHT22;38063;53.210;6.504;2022-12-05T06:24:34;4.90;99.90
52058;DHT22;38063;53.210;6.504;2022-12-05T06:26:59;5.00;99.90
52058;DHT22;38063;53.210;6.504;2022-12-05T06:29:25;5.00;99.90
52058;DHT22;38063;53.210;6.504;2022-12-05T06:31:50;5.00;99.90
52058;DHT22;38063;53.210;6.504;2022-12-05T06:34:16;5.00;99.90
52058;DHT22;38063;53.210;6.504;2022-12-05T06:36:42;5.00;99.90
52058;DHT22;38063;53.210;6.504;2022-12-05T06:39:07;5.00;99.90
52058;DHT22;38063;53.210;6.504;2022-12-05T06:41:33;5.00;99.90
52058;DHT22;38063;53.210;6.504;2022-12-05T06:43:59;5.00;99.90
52058;DHT22;38063;53.210;6.504;2022-12-05T06:46:25;5.00;99.90
52058;DHT22;38063;53.210;6.504;2022-12-05T06:48:52;5.00;99.90
52058;DHT22;38063;53.210;6.504;2022-12-05T06:51:18;5.00;99.90
52058;DHT22;38063;53.210;6.504;2022-12-05T06:53:44;5.00;99.90
52058;DHT22;38063;53.210;6.504;2022-12-05T06:56:12;5.00;99.90
52058;DHT22;38063;53.210;6.504;2022-12-05T06:58:40;5.00;99.90
52058;DHT22;38063;53.210;6.504;2022-12-05T07:01:10;5.00;99.90
52058;DHT22;38063;53.210;6.504;2022-12-05T07:03:55;5.00;99.90
52058;DHT22;38063;53.210;6.504;2022-12-05T07:06:21;5.00;99.90
52058;DHT22;38063;53.210;6.504;2022-12-05T07:08:47;5.00;99.90
52058;DHT22;38063;53.210;6.504;2022-12-05T07:11:12;5.00;99.90
52058;DHT22;38063;53.210;6.504;2022-12-05T07:13:38;5.90;99.90
52058;DHT22;38063;53.210;6.504;2022-12-05T07:16:10;5.00;99.90
52058;DHT22;38063;53.210;6.504;2022-12-05T07:18:39;5.00;99.90
52058;DHT22;38063;53.210;6.504;2022-12-05T07:21:07;5.00;99.90
52058;DHT22;38063;53.210;6.504;2022-12-05T07:23:33;5.00;99.90
52058;DHT22;38063;53.210;6.504;2022-12-05T07:26:02;5.10;99.90
52058;DHT22;38063;53.210;6.504;2022-12-05T07:28:28;5.40;99.90
52058;DHT22;38063;53.210;6.504;2022-12-05T07:31:06;5.10;99.90
52058;DHT22;38063;53.210;6.504;2022-12-05T07:33:31;5.10;99.90
52058;DHT22;38063;53.210;6.504;2022-12-05T07:36:09;5.10;99.90
52058;DHT22;38063;53.210;6.504;2022-12-05T07:38:36;5.10;99.90
52058;DHT22;38063;53.210;6.504;2022-12-05T07:41:13;5.10;99.90
52058;DHT22;38063;53.210;6.504;2022-12-05T07:43:41;5.10;99.90
52058;DHT22;38063;53.210;6.504;2022-12-05T07:46:07;5.10;99.90
52058;DHT22;38063;53.210;6.504;2022-12-05T07:48:33;5.10;99.90
52058;DHT22;38063;53.210;6.504;2022-12-05T07:51:03;5.20;99.90
52058;DHT22;38063;53.210;6.504;2022-12-05T07:53:30;5.10;99.90
52058;DHT22;38063;53.210;6.504;2022-12-05T07:56:00;5.20;99.90
52058;DHT22;38063;53.210;6.504;2022-12-05T07:58:30;5.20;99.90
52058;DHT22;38063;53.210;6.504;2022-12-05T08:00:56;5.10;99.90
52058;DHT22;38063;53.210;6.504;2022-12-05T08:03:22;5.20;99.90
52058;DHT22;38063;53.210;6.504;2022-12-05T08:05:48;5.20;99.90
52058;DHT22;38063;53.210;6.504;2022-12-05T08:08:13;5.40;99.90
52058;DHT22;38063;53.210;6.504;2022-12-05T08:10:39;5.20;99.90
52058;DHT22;38063;53.210;6.504;2022-12-05T08:13:05;5.20;99.90
52058;DHT22;38063;53.210;6.504;2022-12-05T08:15:34;5.20;99.90
52058;DHT22;38063;53.210;6.504;2022-12-05T08:18:01;5.20;99.90
52058;DHT22;38063;53.210;6.504;2022-12-05T08:20:26;5.00;99.90
52058;DHT22;38063;53.210;6.504;2022-12-05T08:22:52;5.20;99.90
52058;DHT22;38063;53.210;6.504;2022-12-05T08:25:18;5.20;99.90
52058;DHT22;38063;53.210;6.504;2022-12-05T08:27:44;5.20;99.90
52058;DHT22;38063;53.210;6.504;2022-12-05T08:30:10;5.20;99.90
52058;DHT22;38063;53.210;6.504;2022-12-05T08:32:35;5.20;99.90
52058;DHT22;38063;53.210;6.504;2022-12-05T08:35:01;5.20;99.90
52058;DHT22;38063;53.210;6.504;2022-12-05T08:37:27;5.20;99.90
52058;DHT22;38063;53.210;6.504;2022-12-05T08:39:52;5.20;99.90
52058;DHT22;38063;53.210;6.504;2022-12-05T08:42:18;5.20;99.90
52058;DHT22;38063;53.210;6.504;2022-12-05T08:44:44;5.20;99.90
52058;DHT22;38063;53.210;6.504;2022-12-05T08:47:09;5.20;99.90
52058;DHT22;38063;53.210;6.504;2022-12-05T08:49:35;5.20;99.90
52058;DHT22;38063;53.210;6.504;2022-12-05T08:52:00;5.20;99.90
52058;DHT22;38063;53.210;6.504;2022-12-05T08:54:26;5.20;99.90
52058;DHT22;38063;53.210;6.504;2022-12-05T08:56:52;5.30;99.90
52058;DHT22;38063;53.210;6.504;2022-12-05T08:59:18;5.10;99.90
52058;DHT22;38063;53.210;6.504;2022-12-05T09:01:44;5.20;99.90
52058;DHT22;38063;53.210;6.504;2022-12-05T09:04:10;5.20;99.90
52058;DHT22;38063;53.210;6.504;2022-12-05T09:06:36;5.20;99.90
52058;DHT22;38063;53.210;6.504;2022-12-05T09:09:05;5.20;99.90
52058;DHT22;38063;53.210;6.504;2022-12-05T09:11:34;5.10;99.90
52058;DHT22;38063;53.210;6.504;2022-12-05T09:14:00;5.10;99.90
52058;DHT22;38063;53.210;6.504;2022-12-05T09:16:31;5.20;99.90
52058;DHT22;38063;53.210;6.504;2022-12-05T09:18:57;5.20;99.90
52058;DHT22;38063;53.210;6.504;2022-12-05T09:21:28;5.20;99.90
52058;DHT22;38063;53.210;6.504;2022-12-05T09:23:54;5.20;99.90
52058;DHT22;38063;53.210;6.504;2022-12-05T09:26:22;5.20;99.90
52058;DHT22;38063;53.210;6.504;2022-12-05T09:28:49;5.20;99.90
52058;DHT22;38063;53.210;6.504;2022-12-05T09:31:18;5.20;99.90
52058;DHT22;38063;53.210;6.504;2022-12-05T09:33:45;5.20;99.90
52058;DHT22;38063;53.210;6.504;2022-12-05T09:36:23;5.20;99.90
52058;DHT22;38063;53.210;6.504;2022-12-05T09:38:49;5.20;99.90
52058;DHT22;38063;53.210;6.504;2022-12-05T09:44:02;5.80;99.90
52058;DHT22;38063;53.210;6.504;2022-12-05T09:49:04;5.20;99.90
52058;DHT22;38063;53.210;6.504;2022-12-05T09:51:31;5.30;99.90
52058;DHT22;38063;53.210;6.504;2022-12-05T09:53:58;5.40;99.90
52058;DHT22;38063;53.210;6.504;2022-12-05T09:56:27;5.80;99.90
52058;DHT22;38063;53.210;6.504;2022-12-05T09:58:55;5.30;99.90
52058;DHT22;38063;53.210;6.504;2022-12-05T10:01:32;5.20;99.90
52058;DHT22;38063;53.210;6.504;2022-12-05T10:20:32;5.20;99.90
52058;DHT22;38063;53.210;6.504;2022-12-05T10:23:04;5.20;99.90
52058;DHT22;38063;53.210;6.504;2022-12-05T10:25:31;5.60;99.90
52058;DHT22;38063;53.210;6.504;2022-12-05T10:28:00;5.20;99.90
52058;DHT22;38063;53.210;6.504;2022-12-05T10:30:29;5.20;99.90
52058;DHT22;38063;53.210;6.504;2022-12-05T10:33:00;5.20;99.90
52058;DHT22;38063;53.210;6.504;2022-12-05T10:35:36;5.20;99.90
52058;DHT22;38063;53.210;6.504;2022-12-05T10:38:05;5.20;99.90
52058;DHT22;38063;53.210;6.504;2022-12-05T10:40:37;5.20;99.90
52058;DHT22;38063;53.210;6.504;2022-12-05T10:43:10;5.20;99.90
52058;DHT22;38063;53.210;6.504;2022-12-05T10:45:45;5.20;99.90
52058;DHT22;38063;53.210;6.504;2022-12-05T10:48:13;5.20;99.90
52058;DHT22;38063;53.210;6.504;2022-12-05T10:50:41;5.20;99.90
52058;DHT22;38063;53.210;6.504;2022-12-05T10:53:12;5.20;99.90
52058;DHT22;38063;53.210;6.504;2022-12-05T10:55:44;5.20;99.90
52058;DHT22;38063;53.210;6.504;2022-12-05T10:58:24;5.20;99.90
52058;DHT22;38063;53.210;6.504;2022-12-05T11:01:06;5.20;99.90
52058;DHT22;38063;53.210;6.504;2022-12-05T11:03:37;5.20;99.90
52058;DHT22;38063;53.210;6.504;2022-12-05T11:06:26;5.20;99.90
52058;DHT22;38063;53.210;6.504;2022-12-05T11:09:20;5.10;99.90
52058;DHT22;38063;53.210;6.504;2022-12-05T11:14:33;5.20;99.90
52058;DHT22;38063;53.210;6.504;2022-12-05T11:17:02;5.20;99.90
52058;DHT22;38063;53.210;6.504;2022-12-05T11:19:36;5.20;99.90
52058;DHT22;38063;53.210;6.504;2022-12-05T11:22:03;5.20;99.90
52058;DHT22;38063;53.210;6.504;2022-12-05T11:24:32;5.20;99.90
52058;DHT22;38063;53.210;6.504;2022-12-05T11:29:44;5.20;99.90
52058;DHT22;38063;53.210;6.504;2022-12-05T11:32:22;5.20;99.90
52058;DHT22;38063;53.210;6.504;2022-12-05T11:35:24;5.20;99.90
52058;DHT22;38063;53.210;6.504;2022-12-05T11:38:01;5.20;99.90
52058;DHT22;38063;53.210;6.504;2022-12-05T11:45:56;5.50;99.90
52058;DHT22;38063;53.210;6.504;2022-12-05T11:57:03;5.20;99.90
52058;DHT22;38063;53.210;6.504;2022-12-05T12:05:06;5.20;99.90
52058;DHT22;38063;53.210;6.504;2022-12-05T12:07:58;5.20;99.90
52058;DHT22;38063;53.210;6.504;2022-12-05T12:14:04;5.10;99.90
52058;DHT22;38063;53.210;6.504;2022-12-05T12:20:03;5.10;99.90
52058;DHT22;38063;53.210;6.504;2022-12-05T12:25:45;5.10;99.90
52058;DHT22;38063;53.210;6.504;2022-12-05T12:28:38;5.10;99.90
52058;DHT22;38063;53.210;6.504;2022-12-05T12:36:50;5.10;99.90
52058;DHT22;38063;53.210;6.504;2022-12-05T12:42:15;5.10;99.90
52058;DHT22;38063;53.210;6.504;2022-12-05T12:45:05;5.10;99.90
52058;DHT22;38063;53.210;6.504;2022-12-05T12:50:36;5.10;99.90
52058;DHT22;38063;53.210;6.504;2022-12-05T12:58:46;5.20;99.90
52058;DHT22;38063;53.210;6.504;2022-12-05T13:01:23;5.10;99.90
52058;DHT22;38063;53.210;6.504;2022-12-05T13:03:57;5.20;99.90
52058;DHT22;38063;53.210;6.504;2022-12-05T13:11:53;5.20;99.90
52058;DHT22;38063;53.210;6.504;2022-12-05T13:14:22;5.20;99.90
52058;DHT22;38063;53.210;6.504;2022-12-05T13:16:51;5.20;99.90
52058;DHT22;38063;53.210;6.504;2022-12-05T13:22:11;5.20;99.90
52058;DHT22;38063;53.210;6.504;2022-12-05T13:24:38;5.20;99.90
52058;DHT22;38063;53.210;6.504;2022-12-05T13:27:05;5.20;99.90
52058;DHT22;38063;53.210;6.504;2022-12-05T13:29:35;5.20;99.90
52058;DHT22;38063;53.210;6.504;2022-12-05T13:32:03;5.20;99.90
52058;DHT22;38063;53.210;6.504;2022-12-05T13:34:39;5.20;99.90
52058;DHT22;38063;53.210;6.504;2022-12-05T13:37:23;5.10;99.90
52058;DHT22;38063;53.210;6.504;2022-12-05T13:40:24;5.20;99.90
52058;DHT22;38063;53.210;6.504;2022-12-05T13:43:14;5.10;99.90
52058;DHT22;38063;53.210;6.504;2022-12-05T13:45:41;5.60;99.90
52058;DHT22;38063;53.210;6.504;2022-12-05T13:48:22;5.10;99.90
52058;DHT22;38063;53.210;6.504;2022-12-05T13:56:25;5.10;99.90
52058;DHT22;38063;53.210;6.504;2022-12-05T13:58:53;5.10;99.90
52058;DHT22;38063;53.210;6.504;2022-12-05T14:17:32;5.10;99.90
52058;DHT22;38063;53.210;6.504;2022-12-05T14:20:20;5.10;99.90
52058;DHT22;38063;53.210;6.504;2022-12-05T14:23:06;5.10;99.90
52058;DHT22;38063;53.210;6.504;2022-12-05T14:26:12;5.10;99.90
52058;DHT22;38063;53.210;6.504;2022-12-05T14:28:51;5.10;99.90
52058;DHT22;38063;53.210;6.504;2022-12-05T14:34:28;5.10;99.90
52058;DHT22;38063;53.210;6.504;2022-12-05T14:37:28;5.00;99.90
52058;DHT22;38063;53.210;6.504;2022-12-05T14:39:56;5.00;99.90
52058;DHT22;38063;53.210;6.504;2022-12-05T14:42:34;5.00;99.90
52058;DHT22;38063;53.210;6.504;2022-12-05T14:45:03;5.00;99.90
52058;DHT22;38063;53.210;6.504;2022-12-05T14:47:59;5.00;99.90
52058;DHT22;38063;53.210;6.504;2022-12-05T14:59:00;5.00;99.90
52058;DHT22;38063;53.210;6.504;2022-12-05T15:01:42;5.00;99.90
52058;DHT22;38063;53.210;6.504;2022-12-05T15:04:16;5.00;99.90
52058;DHT22;38063;53.210;6.504;2022-12-05T15:23:44;5.00;99.90
52058;DHT22;38063;53.210;6.504;2022-12-05T15:29:06;5.00;99.90
52058;DHT22;38063;53.210;6.504;2022-12-05T15:31:38;5.00;99.90
52058;DHT22;38063;53.210;6.504;2022-12-05T15:34:17;5.00;99.90
52058;DHT22;38063;53.210;6.504;2022-12-05T15:39:24;4.90;99.90
52058;DHT22;38063;53.210;6.504;2022-12-05T15:41:54;5.00;99.90
52058;DHT22;38063;53.210;6.504;2022-12-05T15:44:21;5.00;99.90
52058;DHT22;38063;53.210;6.504;2022-12-05T15:46:55;5.00;99.90
52058;DHT22;38063;53.210;6.504;2022-12-05T15:49:26;5.00;99.90
52058;DHT22;38063;53.210;6.504;2022-12-05T15:51:56;5.00;99.90
52058;DHT22;38063;53.210;6.504;2022-12-05T15:54:31;5.00;99.90
52058;DHT22;38063;53.210;6.504;2022-12-05T15:59:29;5.00;99.90
52058;DHT22;38063;53.210;6.504;2022-12-05T16:02:06;5.00;99.90
52058;DHT22;38063;53.210;6.504;2022-12-05T16:04:44;5.00;99.90
52058;DHT22;38063;53.210;6.504;2022-12-05T16:07:12;5.00;99.90
52058;DHT22;38063;53.210;6.504;2022-12-05T16:09:41;5.40;99.90
52058;DHT22;38063;53.210;6.504;2022-12-05T16:14:53;5.00;99.90
52058;DHT22;38063;53.210;6.504;2022-12-05T16:17:20;5.20;99.90
52058;DHT22;38063;53.210;6.504;2022-12-05T16:19:46;5.00;99.90
52058;DHT22;38063;53.210;6.504;2022-12-05T16:29:42;5.00;99.90
52058;DHT22;38063;53.210;6.504;2022-12-05T16:32:20;5.00;99.90
52058;DHT22;38063;53.210;6.504;2022-12-05T16:34:46;5.00;99.90
52058;DHT22;38063;53.210;6.504;2022-12-05T16:37:23;4.90;99.90
52058;DHT22;38063;53.210;6.504;2022-12-05T16:39:50;5.00;99.90
52058;DHT22;38063;53.210;6.504;2022-12-05T16:42:25;5.40;99.90
52058;DHT22;38063;53.210;6.504;2022-12-05T16:44:57;5.00;99.90
52058;DHT22;38063;53.210;6.504;2022-12-05T16:50:32;4.90;99.90
52058;DHT22;38063;53.210;6.504;2022-12-05T16:53:19;5.00;99.90
52058;DHT22;38063;53.210;6.504;2022-12-05T16:55:45;5.00;99.90
52058;DHT22;38063;53.210;6.504;2022-12-05T16:58:16;5.10;99.90
52058;DHT22;38063;53.210;6.504;2022-12-05T17:00:44;5.00;99.90
52058;DHT22;38063;53.210;6.504;2022-12-05T17:03:13;5.00;99.90
52058;DHT22;38063;53.210;6.504;2022-12-05T17:05:39;5.00;99.90
52058;DHT22;38063;53.210;6.504;2022-12-05T17:08:05;5.00;99.90
52058;DHT22;38063;53.210;6.504;2022-12-05T17:10:31;5.00;99.90
52058;DHT22;38063;53.210;6.504;2022-12-05T17:12:57;5.00;99.90
52058;DHT22;38063;53.210;6.504;2022-12-05T17:15:24;5.00;99.90
52058;DHT22;38063;53.210;6.504;2022-12-05T17:17:50;5.30;99.90
52058;DHT22;38063;53.210;6.504;2022-12-05T17:20:16;5.00;99.90
52058;DHT22;38063;53.210;6.504;2022-12-05T17:22:41;5.00;99.90
52058;DHT22;38063;53.210;6.504;2022-12-05T17:25:22;5.00;99.90
52058;DHT22;38063;53.210;6.504;2022-12-05T17:27:51;5.50;99.90
52058;DHT22;38063;53.210;6.504;2022-12-05T17:30:17;5.00;99.90
52058;DHT22;38063;53.210;6.504;2022-12-05T17:32:42;5.00;99.90
52058;DHT22;38063;53.210;6.504;2022-12-05T17:35:15;5.00;99.90
52058;DHT22;38063;53.210;6.504;2022-12-05T17:37:41;5.00;99.90
52058;DHT22;38063;53.210;6.504;2022-12-05T17:40:08;5.00;99.90
52058;DHT22;38063;53.210;6.504;2022-12-05T17:42:34;4.90;99.90
52058;DHT22;38063;53.210;6.504;2022-12-05T17:44:59;5.00;99.90
52058;DHT22;38063;53.210;6.504;2022-12-05T17:47:25;5.50;99.90
52058;DHT22;38063;53.210;6.504;2022-12-05T17:49:50;5.00;99.90
52058;DHT22;38063;53.210;6.504;2022-12-05T17:52:16;5.00;99.90
52058;DHT22;38063;53.210;6.504;2022-12-05T17:54:42;5.00;99.90
52058;DHT22;38063;53.210;6.504;2022-12-05T17:57:08;5.00;99.90
52058;DHT22;38063;53.210;6.504;2022-12-05T17:59:34;5.00;99.90
52058;DHT22;38063;53.210;6.504;2022-12-05T18:01:59;4.90;99.90
52058;DHT22;38063;53.210;6.504;2022-12-05T18:04:25;5.00;99.90
52058;DHT22;38063;53.210;6.504;2022-12-05T18:06:51;5.00;99.90
52058;DHT22;38063;53.210;6.504;2022-12-05T18:09:16;5.00;99.90
52058;DHT22;38063;53.210;6.504;2022-12-05T18:11:42;5.00;99.90
52058;DHT22;38063;53.210;6.504;2022-12-05T18:14:08;5.00;99.90
52058;DHT22;38063;53.210;6.504;2022-12-05T18:16:34;5.00;99.90
52058;DHT22;38063;53.210;6.504;2022-12-05T18:19:00;5.00;99.90
52058;DHT22;38063;53.210;6.504;2022-12-05T18:21:26;5.00;99.90
52058;DHT22;38063;53.210;6.504;2022-12-05T18:23:52;5.00;99.90
52058;DHT22;38063;53.210;6.504;2022-12-05T18:26:17;5.00;99.90
52058;DHT22;38063;53.210;6.504;2022-12-05T18:28:43;5.00;99.90
52058;DHT22;38063;53.210;6.504;2022-12-05T18:31:13;5.00;99.90
52058;DHT22;38063;53.210;6.504;2022-12-05T18:33:40;5.00;99.90
52058;DHT22;38063;53.210;6.504;2022-12-05T18:36:12;5.00;99.90
52058;DHT22;38063;53.210;6.504;2022-12-05T18:38:40;5.10;99.90
52058;DHT22;38063;53.210;6.504;2022-12-05T18:41:07;5.00;99.90
52058;DHT22;38063;53.210;6.504;2022-12-05T18:43:34;5.10;99.90
52058;DHT22;38063;53.210;6.504;2022-12-05T18:46:00;5.00;99.90
52058;DHT22;38063;53.210;6.504;2022-12-05T18:48:29;5.70;99.90
52058;DHT22;38063;53.210;6.504;2022-12-05T18:50:55;5.10;99.90
52058;DHT22;38063;53.210;6.504;2022-12-05T18:53:30;5.10;99.90
52058;DHT22;38063;53.210;6.504;2022-12-05T18:56:00;5.10;99.90
52058;DHT22;38063;53.210;6.504;2022-12-05T18:58:28;5.10;99.90
52058;DHT22;38063;53.210;6.504;2022-12-05T19:00:54;5.10;99.90
52058;DHT22;38063;53.210;6.504;2022-12-05T19:03:27;5.10;99.90